createdAt,value
2019-03-26T00:02:20.463Z,5.10
2019-03-26T00:04:48.060Z,5.10
2019-03-26T00:07:15.612Z,5.10
2019-03-26T00:09:43.525Z,5.10
2019-03-26T00:12:11.235Z,5.10
2019-03-26T00:14:38.833Z,5.00
2019-03-26T00:17:07.233Z,5.10
2019-03-26T00:19:35.181Z,5.10
2019-03-26T00:22:03.331Z,5.10
2019-03-26T00:24:30.984Z,5.10
2019-03-26T00:26:58.546Z,5.10
2019-03-26T00:29:26.132Z,5.10
2019-03-26T00:31:53.842Z,5.20
2019-03-26T00:34:21.419Z,5.20
2019-03-26T00:36:49.226Z,5.20
2019-03-26T00:39:16.916Z,5.20
2019-03-26T00:41:44.658Z,5.30
2019-03-26T00:44:12.526Z,5.30
2019-03-26T00:46:40.116Z,5.30
2019-03-26T00:49:08.292Z,5.30
2019-03-26T00:51:36.135Z,5.30
2019-03-26T00:54:03.805Z,5.30
2019-03-26T00:56:31.804Z,5.30
2019-03-26T00:58:59.331Z,5.30
2019-03-26T01:01:27.248Z,5.30
2019-03-26T01:03:55.315Z,5.40
2019-03-26T01:06:24.110Z,5.40
2019-03-26T01:08:51.708Z,5.40
2019-03-26T01:11:19.372Z,5.40
2019-03-26T01:13:47.140Z,5.40
2019-03-26T01:16:14.745Z,5.40
2019-03-26T01:18:42.650Z,5.40
2019-03-26T01:21:10.202Z,5.50
2019-03-26T01:23:38.217Z,5.50
2019-03-26T01:26:05.799Z,5.60
2019-03-26T01:28:33.736Z,5.60
2019-03-26T01:31:01.795Z,5.50
2019-03-26T01:33:29.337Z,5.60
2019-03-26T01:35:56.930Z,5.50
2019-03-26T01:38:24.631Z,5.50
2019-03-26T01:40:52.492Z,5.50
2019-03-26T01:43:20.103Z,5.60
2019-03-26T01:45:47.714Z,5.60
2019-03-26T01:48:15.396Z,5.60
2019-03-26T01:50:43.193Z,5.60
2019-03-26T01:53:10.765Z,5.50
2019-03-26T01:55:38.364Z,5.50
2019-03-26T01:58:06.026Z,5.50
2019-03-26T02:00:34.340Z,5.50
2019-03-26T02:03:02.208Z,5.50
2019-03-26T02:05:30.472Z,5.50
2019-03-26T02:07:58.031Z,5.50
2019-03-26T02:10:25.611Z,5.50
2019-03-26T02:12:54.052Z,5.50
2019-03-26T02:15:32.000Z,5.50
2019-03-26T02:18:00.348Z,5.50
2019-03-26T02:20:29.829Z,5.50
2019-03-26T02:22:57.505Z,5.50
2019-03-26T02:25:26.370Z,5.50
2019-03-26T02:27:54.203Z,5.50
2019-03-26T02:30:21.879Z,5.50
2019-03-26T02:32:49.480Z,5.60
2019-03-26T02:35:19.068Z,5.60
2019-03-26T02:37:46.885Z,5.50
2019-03-26T02:40:15.654Z,5.50
2019-03-26T02:42:43.349Z,5.50
2019-03-26T02:45:11.555Z,5.50
2019-03-26T02:47:39.582Z,5.60
2019-03-26T02:50:07.798Z,5.60
2019-03-26T02:52:35.508Z,5.60
2019-03-26T02:55:03.784Z,5.60
2019-03-26T02:57:31.344Z,5.60
2019-03-26T02:59:58.960Z,5.60
2019-03-26T03:02:26.526Z,5.60
2019-03-26T03:04:57.428Z,5.60
2019-03-26T03:07:25.441Z,5.60
2019-03-26T03:09:53.524Z,5.60
2019-03-26T03:12:21.589Z,5.60
2019-03-26T03:14:49.643Z,5.50
2019-03-26T03:17:17.581Z,5.50
2019-03-26T03:19:45.382Z,5.50
2019-03-26T03:22:13.137Z,5.40
2019-03-26T03:24:40.862Z,5.40
2019-03-26T03:27:08.953Z,5.40
2019-03-26T03:29:36.603Z,5.40
2019-03-26T03:32:04.818Z,5.40
2019-03-26T03:34:32.848Z,5.40
2019-03-26T03:37:00.428Z,5.40
2019-03-26T03:39:27.983Z,5.40
2019-03-26T03:41:55.754Z,5.50
2019-03-26T03:44:23.817Z,5.50
2019-03-26T03:46:55.027Z,5.50
2019-03-26T03:49:24.922Z,5.50
2019-03-26T03:51:53.257Z,5.60
2019-03-26T03:54:21.753Z,5.60
2019-03-26T03:56:52.235Z,5.60
2019-03-26T03:59:21.694Z,5.70
2019-03-26T04:01:49.543Z,5.70
2019-03-26T04:04:17.145Z,5.70
2019-03-26T04:06:44.698Z,5.70
2019-03-26T04:09:12.284Z,5.80
2019-03-26T04:11:40.230Z,5.80
2019-03-26T04:14:07.761Z,5.70
2019-03-26T04:16:35.299Z,5.70
2019-03-26T04:19:03.178Z,5.60
2019-03-26T04:21:31.188Z,5.60
2019-03-26T04:23:59.215Z,5.60
2019-03-26T04:26:26.773Z,5.60
2019-03-26T04:28:54.353Z,5.60
2019-03-26T04:31:21.980Z,5.60
2019-03-26T04:33:49.548Z,5.60
2019-03-26T04:36:25.384Z,5.60
2019-03-26T04:38:46.727Z,5.60
2019-03-26T04:41:14.778Z,5.60
2019-03-26T04:43:42.444Z,5.50
2019-03-26T04:46:10.002Z,5.50
2019-03-26T04:48:38.039Z,5.40
2019-03-26T04:51:06.370Z,5.40
2019-03-26T04:53:34.261Z,5.40
2019-03-26T04:56:02.091Z,5.50
2019-03-26T04:58:29.750Z,5.60
2019-03-26T05:00:57.313Z,5.50
2019-03-26T05:03:26.062Z,5.60
2019-03-26T05:05:53.834Z,5.60
2019-03-26T05:08:21.475Z,5.70
2019-03-26T05:10:49.330Z,5.70
2019-03-26T05:13:17.059Z,5.70
2019-03-26T05:15:44.935Z,5.80
2019-03-26T05:18:12.864Z,5.80
2019-03-26T05:20:41.683Z,5.70
2019-03-26T05:23:09.587Z,5.70
2019-03-26T05:25:37.795Z,5.70
2019-03-26T05:28:05.365Z,5.70
2019-03-26T05:30:33.378Z,5.70
2019-03-26T05:33:01.114Z,5.60
2019-03-26T05:35:28.744Z,5.60
2019-03-26T05:37:56.452Z,5.60
2019-03-26T05:40:24.455Z,5.50
2019-03-26T05:42:52.292Z,5.50
2019-03-26T05:45:20.573Z,5.50
2019-03-26T05:47:48.488Z,5.60
2019-03-26T05:50:16.300Z,5.50
2019-03-26T05:52:44.133Z,5.60
2019-03-26T05:55:11.809Z,5.50
2019-03-26T05:57:39.391Z,5.50
2019-03-26T06:00:12.379Z,5.50
2019-03-26T06:02:40.370Z,5.50
2019-03-26T06:05:08.618Z,5.60
2019-03-26T06:07:36.302Z,5.60
2019-03-26T06:10:05.759Z,5.60
2019-03-26T06:12:34.640Z,5.60
2019-03-26T06:15:04.367Z,5.70
2019-03-26T06:17:32.002Z,5.70
2019-03-26T06:19:59.769Z,5.70
2019-03-26T06:22:27.757Z,5.70
2019-03-26T06:24:55.347Z,5.80
2019-03-26T06:27:22.859Z,5.80
2019-03-26T06:29:50.376Z,5.90
2019-03-26T06:32:18.145Z,5.90
2019-03-26T06:34:45.972Z,5.90
2019-03-26T06:37:18.080Z,6.00
2019-03-26T06:39:43.159Z,6.00
2019-03-26T06:42:10.763Z,6.10
2019-03-26T06:44:38.367Z,6.20
2019-03-26T06:47:06.378Z,6.30
2019-03-26T06:49:34.491Z,6.40
2019-03-26T06:52:02.087Z,6.50
2019-03-26T06:54:29.855Z,6.50
2019-03-26T06:56:58.459Z,6.70
2019-03-26T06:59:26.089Z,6.70
2019-03-26T07:01:55.189Z,6.70
2019-03-26T07:04:23.144Z,6.60
2019-03-26T07:06:50.810Z,6.60
2019-03-26T07:09:18.382Z,6.70
2019-03-26T07:11:46.074Z,6.70
2019-03-26T07:14:13.809Z,6.70
2019-03-26T07:16:41.863Z,6.70
2019-03-26T07:19:09.587Z,6.70
2019-03-26T07:21:49.154Z,6.80
2019-03-26T07:24:06.676Z,6.80
2019-03-26T07:26:34.564Z,6.90
2019-03-26T07:29:03.648Z,6.90
2019-03-26T07:31:31.628Z,6.90
2019-03-26T07:33:59.683Z,6.90
2019-03-26T07:36:27.787Z,7.10
2019-03-26T07:38:55.452Z,7.10
2019-03-26T07:41:23.216Z,7.10
2019-03-26T07:43:51.360Z,7.10
2019-03-26T07:46:19.648Z,7.10
2019-03-26T07:48:47.259Z,7.10
2019-03-26T07:51:14.891Z,7.10
2019-03-26T07:53:42.792Z,7.20
2019-03-26T07:56:10.496Z,7.20
2019-03-26T07:58:38.503Z,7.30
2019-03-26T08:01:06.070Z,7.40
2019-03-26T08:03:34.435Z,7.50
2019-03-26T08:06:02.334Z,7.50
2019-03-26T08:08:30.996Z,7.60
2019-03-26T08:10:59.265Z,7.60
2019-03-26T08:13:27.057Z,7.70
2019-03-26T08:15:54.708Z,7.70
2019-03-26T08:18:22.356Z,7.80
2019-03-26T08:20:50.215Z,7.80
2019-03-26T08:23:18.193Z,7.80
2019-03-26T08:25:45.733Z,7.80
2019-03-26T08:28:13.320Z,7.80
2019-03-26T08:30:40.855Z,7.80
2019-03-26T08:33:08.776Z,7.80
2019-03-26T08:35:36.500Z,7.70
2019-03-26T08:38:12.410Z,7.70
2019-03-26T08:40:34.073Z,7.80
2019-03-26T08:43:03.028Z,7.90
2019-03-26T08:45:30.772Z,7.90
2019-03-26T08:47:58.401Z,7.90
2019-03-26T08:50:25.968Z,7.90
2019-03-26T08:52:54.915Z,8.00
2019-03-26T08:55:22.463Z,8.10
2019-03-26T08:57:50.100Z,8.20
2019-03-26T09:00:18.053Z,8.30
2019-03-26T09:02:45.703Z,8.40
2019-03-26T09:05:14.052Z,8.40
2019-03-26T09:07:41.724Z,8.30
2019-03-26T09:10:09.972Z,8.10
2019-03-26T09:12:39.552Z,8.00
2019-03-26T09:15:08.300Z,7.80
2019-03-26T09:17:36.045Z,7.70
2019-03-26T09:20:04.661Z,7.30
2019-03-26T09:22:32.587Z,6.80
2019-03-26T09:25:00.498Z,6.60
2019-03-26T09:27:28.298Z,6.60
2019-03-26T09:29:56.395Z,6.50
2019-03-26T09:32:24.322Z,6.50
2019-03-26T09:34:51.988Z,6.60
2019-03-26T09:37:19.721Z,6.70
2019-03-26T09:39:47.395Z,6.80
2019-03-26T09:42:15.069Z,6.90
2019-03-26T09:44:43.615Z,7.00
2019-03-26T09:47:16.549Z,7.30
2019-03-26T09:49:41.076Z,7.50
2019-03-26T09:52:09.175Z,7.60
2019-03-26T09:54:37.077Z,7.70
2019-03-26T09:57:04.867Z,7.70
2019-03-26T09:59:32.707Z,7.70
2019-03-26T10:02:00.309Z,7.60
2019-03-26T10:04:28.037Z,7.50
2019-03-26T10:06:56.379Z,7.60
2019-03-26T10:09:24.590Z,7.60
2019-03-26T10:11:52.163Z,7.70
2019-03-26T10:14:19.771Z,7.70
2019-03-26T10:16:47.376Z,7.80
2019-03-26T10:19:16.993Z,7.80
2019-03-26T10:21:44.566Z,7.90
2019-03-26T10:24:12.651Z,8.00
2019-03-26T10:26:40.260Z,8.00
2019-03-26T10:29:24.042Z,8.00
2019-03-26T10:31:39.164Z,8.00
2019-03-26T10:34:07.103Z,8.10
2019-03-26T10:36:35.172Z,8.20
2019-03-26T10:39:05.401Z,8.20
2019-03-26T10:41:33.742Z,8.30
2019-03-26T10:44:01.414Z,8.40
2019-03-26T10:46:29.335Z,8.40
2019-03-26T10:48:57.232Z,8.40
2019-03-26T10:51:24.812Z,8.40
2019-03-26T10:53:52.431Z,8.30
2019-03-26T10:56:20.097Z,8.40
2019-03-26T10:58:48.114Z,8.50
2019-03-26T11:01:15.900Z,8.50
2019-03-26T11:03:43.608Z,8.60
2019-03-26T11:06:11.278Z,8.60
2019-03-26T11:08:39.106Z,8.70
2019-03-26T11:11:06.775Z,8.70
2019-03-26T11:13:34.860Z,8.80
2019-03-26T11:16:02.658Z,8.90
2019-03-26T11:18:31.028Z,9.00
2019-03-26T11:21:03.322Z,9.00
2019-03-26T11:23:29.091Z,9.00
2019-03-26T11:25:56.736Z,9.10
2019-03-26T11:28:24.580Z,9.10
2019-03-26T11:30:52.799Z,9.10
2019-03-26T11:33:20.474Z,9.10
2019-03-26T11:35:48.668Z,9.30
2019-03-26T11:38:18.467Z,9.20
2019-03-26T11:40:45.755Z,9.20
2019-03-26T11:43:13.499Z,9.00
2019-03-26T11:45:41.372Z,9.00
2019-03-26T11:48:09.400Z,9.00
2019-03-26T11:50:37.024Z,8.80
2019-03-26T11:53:04.812Z,8.80
2019-03-26T11:55:32.760Z,8.80
2019-03-26T11:58:00.463Z,8.80
2019-03-26T12:00:31.314Z,8.90
2019-03-26T12:02:58.967Z,8.80
2019-03-26T12:05:26.652Z,8.70
2019-03-26T12:07:54.687Z,8.50
2019-03-26T12:10:22.346Z,8.50
2019-03-26T12:12:49.914Z,8.30
2019-03-26T12:15:17.835Z,8.10
2019-03-26T12:17:45.379Z,8.00
2019-03-26T12:20:13.496Z,7.90
2019-03-26T12:22:41.180Z,7.80
2019-03-26T12:25:09.100Z,7.70
2019-03-26T12:27:37.026Z,7.30
2019-03-26T12:30:30.556Z,7.00
2019-03-26T12:32:58.278Z,6.80
2019-03-26T12:35:29.167Z,6.80
2019-03-26T12:37:56.980Z,6.90
2019-03-26T12:40:24.720Z,7.00
2019-03-26T12:42:52.245Z,7.10
2019-03-26T12:45:20.034Z,7.10
2019-03-26T12:47:48.011Z,7.20
2019-03-26T12:50:16.249Z,7.20
2019-03-26T12:52:43.899Z,7.30
2019-03-26T12:55:12.021Z,7.40
2019-03-26T12:57:39.520Z,7.50
2019-03-26T13:00:08.367Z,7.50
2019-03-26T13:02:36.314Z,7.50
2019-03-26T13:05:04.540Z,7.50
2019-03-26T13:07:32.150Z,7.60
2019-03-26T13:10:07.887Z,7.60
2019-03-26T13:12:29.159Z,7.70
2019-03-26T13:14:59.318Z,7.80
2019-03-26T13:17:26.308Z,8.00
2019-03-26T13:19:54.638Z,8.00
2019-03-26T13:22:23.245Z,8.10
2019-03-26T13:24:50.738Z,8.00
2019-03-26T13:27:18.289Z,8.10
2019-03-26T13:29:46.069Z,8.20
2019-03-26T13:32:13.719Z,8.40
2019-03-26T13:34:41.283Z,8.50
2019-03-26T13:37:08.862Z,8.60
2019-03-26T13:39:36.698Z,8.70
2019-03-26T13:42:04.192Z,8.70
2019-03-26T13:44:31.744Z,8.70
2019-03-26T13:46:59.339Z,8.80
2019-03-26T13:49:26.898Z,8.80
2019-03-26T13:51:54.430Z,8.70
2019-03-26T13:54:22.556Z,8.60
2019-03-26T13:56:50.046Z,8.50
2019-03-26T13:59:17.643Z,8.40
2019-03-26T14:01:45.272Z,8.40
2019-03-26T14:04:13.066Z,8.30
2019-03-26T14:06:40.635Z,8.30
2019-03-26T14:09:08.375Z,8.40
2019-03-26T14:11:36.105Z,8.40
2019-03-26T14:14:03.882Z,8.40
2019-03-26T14:16:31.560Z,8.40
2019-03-26T14:18:59.086Z,8.40
2019-03-26T14:21:26.939Z,8.40
2019-03-26T14:23:54.584Z,8.50
2019-03-26T14:26:22.417Z,8.50
2019-03-26T14:28:50.060Z,8.50
2019-03-26T14:31:17.617Z,8.60
2019-03-26T14:33:45.137Z,8.60
2019-03-26T14:36:13.059Z,8.50
2019-03-26T14:38:40.575Z,8.40
2019-03-26T14:41:08.474Z,8.40
2019-03-26T14:43:36.295Z,8.40
2019-03-26T14:46:04.745Z,8.40
2019-03-26T14:48:32.295Z,8.50
2019-03-26T14:51:00.203Z,8.40
2019-03-26T14:53:27.806Z,8.50
2019-03-26T14:55:55.402Z,8.60
2019-03-26T14:58:23.226Z,8.70
2019-03-26T15:00:51.130Z,8.70
2019-03-26T15:03:18.843Z,8.80
2019-03-26T15:05:46.753Z,8.70
2019-03-26T15:08:14.391Z,8.60
2019-03-26T15:10:42.049Z,8.70
2019-03-26T15:13:09.694Z,8.70
2019-03-26T15:15:37.384Z,8.80
2019-03-26T15:18:05.035Z,8.90
2019-03-26T15:20:33.023Z,8.80
2019-03-26T15:23:00.537Z,8.70
2019-03-26T15:25:28.230Z,8.80
2019-03-26T15:27:56.088Z,8.70
2019-03-26T15:30:23.705Z,8.60
2019-03-26T15:32:51.246Z,8.60
2019-03-26T15:35:18.777Z,8.50
2019-03-26T15:37:46.478Z,8.40
2019-03-26T15:40:14.779Z,8.30
2019-03-26T15:42:42.562Z,8.30
2019-03-26T15:45:11.954Z,8.30
2019-03-26T15:47:39.571Z,8.20
2019-03-26T15:50:08.107Z,8.10
2019-03-26T15:52:36.039Z,8.00
2019-03-26T15:55:04.138Z,7.90
2019-03-26T15:57:31.641Z,7.80
2019-03-26T15:59:59.408Z,7.90
2019-03-26T16:02:27.387Z,7.90
2019-03-26T16:04:55.158Z,7.80
2019-03-26T16:07:22.654Z,7.70
2019-03-26T16:09:50.167Z,7.70
2019-03-26T16:12:18.358Z,7.70
2019-03-26T16:14:45.894Z,7.60
2019-03-26T16:17:13.464Z,7.50
2019-03-26T16:19:41.111Z,7.40
2019-03-26T16:22:09.526Z,7.30
2019-03-26T16:24:37.173Z,7.10
2019-03-26T16:27:04.882Z,7.00
2019-03-26T16:29:32.383Z,6.90
2019-03-26T16:31:59.894Z,6.80
2019-03-26T16:34:27.492Z,6.80
2019-03-26T16:36:59.707Z,6.70
2019-03-26T16:39:24.468Z,6.70
2019-03-26T16:41:52.633Z,6.70
2019-03-26T16:44:20.254Z,6.60
2019-03-26T16:46:47.743Z,6.60
2019-03-26T16:49:15.620Z,6.70
2019-03-26T16:51:43.402Z,6.70
2019-03-26T16:54:10.978Z,6.70
2019-03-26T16:56:38.724Z,6.70
2019-03-26T16:59:07.274Z,6.80
2019-03-26T17:01:35.127Z,6.80
2019-03-26T17:04:03.056Z,6.80
2019-03-26T17:06:30.575Z,6.80
2019-03-26T17:08:58.399Z,6.80
2019-03-26T17:11:26.357Z,6.70
2019-03-26T17:13:54.477Z,6.70
2019-03-26T17:16:22.810Z,6.70
2019-03-26T17:18:50.323Z,6.70
2019-03-26T17:21:18.452Z,6.70
2019-03-26T17:23:46.342Z,6.70
2019-03-26T17:26:15.443Z,6.70
2019-03-26T17:28:43.553Z,6.70
2019-03-26T17:31:11.263Z,6.60
2019-03-26T17:33:39.218Z,6.60
2019-03-26T17:36:07.115Z,6.60
2019-03-26T17:38:34.998Z,6.60
2019-03-26T17:41:02.805Z,6.60
2019-03-26T17:43:30.596Z,6.60
2019-03-26T17:45:58.596Z,6.60
2019-03-26T17:48:26.218Z,6.60
2019-03-26T17:50:53.752Z,6.60
2019-03-26T17:53:21.265Z,6.60
2019-03-26T17:55:49.008Z,6.50
2019-03-26T17:58:17.020Z,6.50
2019-03-26T18:00:45.890Z,6.50
2019-03-26T18:03:25.761Z,6.50
2019-03-26T18:05:44.879Z,6.60
2019-03-26T18:08:13.069Z,6.70
2019-03-26T18:10:41.368Z,6.60
2019-03-26T18:13:09.694Z,6.60
2019-03-26T18:15:37.955Z,6.60
2019-03-26T18:18:05.731Z,6.60
2019-03-26T18:20:33.559Z,6.60
2019-03-26T18:23:01.495Z,6.70
2019-03-26T18:25:29.551Z,6.70
2019-03-26T18:27:57.554Z,6.70
2019-03-26T18:30:25.301Z,6.70
2019-03-26T18:32:53.265Z,6.60
2019-03-26T18:35:21.046Z,6.70
2019-03-26T18:37:48.992Z,6.70
2019-03-26T18:40:16.876Z,6.70
2019-03-26T18:42:44.652Z,6.70
2019-03-26T18:45:13.057Z,6.70
2019-03-26T18:47:41.204Z,6.70
2019-03-26T18:50:09.367Z,6.80
2019-03-26T18:52:37.005Z,6.80
2019-03-26T18:55:05.590Z,6.80
2019-03-26T18:57:34.863Z,6.80
2019-03-26T19:00:03.220Z,6.80
2019-03-26T19:02:30.984Z,6.80
2019-03-26T19:04:58.608Z,6.90
2019-03-26T19:07:26.272Z,6.90
2019-03-26T19:09:54.048Z,6.90
2019-03-26T19:12:21.648Z,6.90
2019-03-26T19:14:50.660Z,6.90
2019-03-26T19:17:18.554Z,6.90
2019-03-26T19:19:46.192Z,6.80
2019-03-26T19:22:15.105Z,6.90
2019-03-26T19:24:42.973Z,6.90
2019-03-26T19:27:11.130Z,6.90
2019-03-26T19:29:39.063Z,6.90
2019-03-26T19:32:07.239Z,6.90
2019-03-26T19:34:34.928Z,6.90
2019-03-26T19:37:02.700Z,7.00
2019-03-26T19:39:31.771Z,6.90
2019-03-26T19:41:59.900Z,7.00
2019-03-26T19:44:27.923Z,6.90
2019-03-26T19:46:55.632Z,7.00
2019-03-26T19:49:23.297Z,7.00
2019-03-26T19:51:51.068Z,7.00
2019-03-26T19:54:18.748Z,6.90
2019-03-26T19:56:47.950Z,6.90
2019-03-26T19:59:15.537Z,7.00
2019-03-26T20:01:43.136Z,6.90
2019-03-26T20:04:11.008Z,6.90
2019-03-26T20:06:38.759Z,6.80
2019-03-26T20:09:06.850Z,6.80
2019-03-26T20:11:34.659Z,6.80
2019-03-26T20:14:04.872Z,6.80
2019-03-26T20:16:41.591Z,6.80
2019-03-26T20:19:02.140Z,6.80
2019-03-26T20:21:29.797Z,6.80
2019-03-26T20:23:58.950Z,6.80
2019-03-26T20:26:26.534Z,6.80
2019-03-26T20:28:54.140Z,6.90
2019-03-26T20:31:21.926Z,6.90
2019-03-26T20:33:49.982Z,6.90
2019-03-26T20:36:19.131Z,6.90
2019-03-26T20:38:46.991Z,6.90
2019-03-26T20:41:14.955Z,6.90
2019-03-26T20:43:42.579Z,6.90
2019-03-26T20:46:10.521Z,6.90
2019-03-26T20:48:38.809Z,6.90
2019-03-26T20:51:06.634Z,6.90
2019-03-26T20:53:34.702Z,7.00
2019-03-26T20:56:02.403Z,7.00
2019-03-26T20:58:31.062Z,7.00
2019-03-26T21:00:58.719Z,7.00
2019-03-26T21:03:26.583Z,7.00
2019-03-26T21:05:54.158Z,7.00
2019-03-26T21:08:21.809Z,7.00
2019-03-26T21:10:49.687Z,6.90
2019-03-26T21:13:17.356Z,7.00
2019-03-26T21:15:56.601Z,7.00
2019-03-26T21:18:15.031Z,7.00
2019-03-26T21:20:42.694Z,7.00
2019-03-26T21:23:10.762Z,7.10
2019-03-26T21:25:38.624Z,7.10
2019-03-26T21:28:07.113Z,7.20
2019-03-26T21:30:35.334Z,7.10
2019-03-26T21:33:06.058Z,7.10
2019-03-26T21:35:35.119Z,7.10
2019-03-26T21:38:03.492Z,7.10
2019-03-26T21:40:31.588Z,7.10
2019-03-26T21:43:00.010Z,7.10
2019-03-26T21:45:34.058Z,7.00
2019-03-26T21:48:02.041Z,7.10
2019-03-26T21:50:30.096Z,7.00
2019-03-26T21:52:58.770Z,7.10
2019-03-26T21:55:26.382Z,7.10
2019-03-26T21:57:54.114Z,7.10
2019-03-26T22:00:21.654Z,7.00
2019-03-26T22:02:49.635Z,7.20
2019-03-26T22:05:17.185Z,7.20
2019-03-26T22:07:44.721Z,7.10
2019-03-26T22:10:13.115Z,7.20
2019-03-26T22:12:40.719Z,7.10
2019-03-26T22:15:09.803Z,7.10
2019-03-26T22:17:37.510Z,7.00
2019-03-26T22:20:06.494Z,7.00
2019-03-26T22:22:34.454Z,7.00
2019-03-26T22:25:02.796Z,6.90
2019-03-26T22:27:30.438Z,6.90
2019-03-26T22:29:57.986Z,6.90
2019-03-26T22:32:25.615Z,7.00
2019-03-26T22:34:53.371Z,7.00
2019-03-26T22:37:21.308Z,7.00
2019-03-26T22:39:48.838Z,7.00
2019-03-26T22:42:16.486Z,7.00
2019-03-26T22:44:44.018Z,7.00
2019-03-26T22:47:11.573Z,7.00
2019-03-26T22:49:39.119Z,6.90
2019-03-26T22:52:06.806Z,7.00
2019-03-26T22:54:34.478Z,7.00
2019-03-26T22:57:02.040Z,7.00
2019-03-26T22:59:29.868Z,7.00
2019-03-26T23:01:57.490Z,7.00
2019-03-26T23:04:25.092Z,7.00
2019-03-26T23:06:52.699Z,7.00
2019-03-26T23:09:20.312Z,7.00
2019-03-26T23:11:48.009Z,7.00
2019-03-26T23:14:16.474Z,7.00
2019-03-26T23:16:43.996Z,6.90
2019-03-26T23:19:11.882Z,6.90
2019-03-26T23:21:39.818Z,6.90
2019-03-26T23:24:07.496Z,6.90
2019-03-26T23:26:35.054Z,6.90
2019-03-26T23:29:02.728Z,7.00
2019-03-26T23:31:30.391Z,7.10
2019-03-26T23:33:58.890Z,7.10
2019-03-26T23:36:26.522Z,7.10
2019-03-26T23:38:53.994Z,7.00
2019-03-26T23:41:21.980Z,7.10
2019-03-26T23:43:50.886Z,7.00
2019-03-26T23:46:18.942Z,7.00
2019-03-26T23:48:46.474Z,7.00
2019-03-26T23:51:14.226Z,7.00
2019-03-26T23:53:42.106Z,7.00
2019-03-26T23:56:10.639Z,7.00
2019-03-26T23:58:38.485Z,7.00
